createdAt,value
2023-05-21T00:01:06.141Z,8.88
2023-05-21T00:03:34.285Z,9.18
2023-05-21T00:06:03.620Z,8.85
2023-05-21T00:08:30.603Z,9.70
2023-05-21T00:10:57.975Z,9.05
2023-05-21T00:13:24.848Z,10.10
2023-05-21T00:15:51.707Z,9.02
2023-05-21T00:18:18.562Z,9.95
2023-05-21T00:20:45.781Z,9.73
2023-05-21T00:23:12.807Z,10.18
2023-05-21T00:25:39.649Z,9.43
2023-05-21T00:28:06.551Z,9.27
2023-05-21T00:30:33.346Z,8.73
2023-05-21T00:33:02.685Z,10.27
2023-05-21T00:35:30.176Z,9.10
2023-05-21T00:37:57.288Z,9.25
2023-05-21T00:40:24.292Z,9.98
2023-05-21T00:42:51.114Z,11.85
2023-05-21T00:45:17.972Z,10.98
2023-05-21T00:47:48.319Z,10.57
2023-05-21T00:50:16.229Z,9.20
2023-05-21T00:52:45.640Z,9.35
2023-05-21T00:55:12.940Z,9.68
2023-05-21T00:57:40.903Z,10.63
2023-05-21T01:00:09.017Z,10.20
2023-05-21T01:02:38.128Z,9.30
2023-05-21T01:05:06.773Z,8.95
2023-05-21T01:07:41.400Z,9.13
2023-05-21T01:10:11.488Z,10.50
2023-05-21T01:12:41.692Z,8.95
2023-05-21T01:15:10.929Z,8.88
2023-05-21T01:17:39.813Z,9.07
2023-05-21T01:20:11.072Z,9.23
2023-05-21T01:22:51.651Z,8.85
2023-05-21T01:25:18.787Z,8.70
2023-05-21T01:27:45.909Z,10.25
2023-05-21T01:30:13.914Z,10.77
2023-05-21T01:33:04.939Z,9.35
2023-05-21T01:35:38.876Z,9.85
2023-05-21T01:38:27.434Z,10.05
2023-05-21T01:41:05.616Z,10.00
2023-05-21T01:43:37.622Z,9.75
2023-05-21T01:46:09.604Z,9.35
2023-05-21T01:48:38.466Z,12.20
2023-05-21T01:51:06.268Z,9.80
2023-05-21T01:53:33.173Z,9.73
2023-05-21T01:56:01.692Z,9.88
2023-05-21T01:58:28.675Z,10.18
2023-05-21T02:00:55.507Z,9.88
2023-05-21T02:03:23.380Z,12.00
2023-05-21T02:05:51.954Z,10.15
2023-05-21T02:08:19.820Z,10.75
2023-05-21T02:10:46.605Z,10.73
2023-05-21T02:13:13.389Z,10.73
2023-05-21T02:15:40.266Z,9.88
2023-05-21T02:18:07.127Z,10.35
2023-05-21T02:20:33.967Z,10.05
2023-05-21T02:23:00.874Z,11.30
2023-05-21T02:25:27.729Z,11.23
2023-05-21T02:27:56.629Z,10.95
2023-05-21T02:30:23.435Z,10.18
2023-05-21T02:32:50.817Z,11.35
2023-05-21T02:35:17.884Z,10.95
2023-05-21T02:37:44.728Z,10.73
2023-05-21T02:40:13.107Z,11.05
2023-05-21T02:42:41.466Z,12.48
2023-05-21T02:45:10.996Z,11.23
2023-05-21T02:47:41.105Z,11.60
2023-05-21T02:50:09.294Z,12.65
2023-05-21T02:52:36.456Z,12.82
2023-05-21T02:55:03.377Z,11.90
2023-05-21T02:57:30.159Z,12.40
2023-05-21T02:59:56.938Z,11.68
2023-05-21T03:02:24.467Z,12.15
2023-05-21T03:04:51.568Z,13.13
2023-05-21T03:07:19.820Z,12.73
2023-05-21T03:09:46.904Z,12.80
2023-05-21T03:12:13.867Z,12.38
2023-05-21T03:14:42.660Z,12.40
2023-05-21T03:17:14.144Z,13.07
2023-05-21T03:19:42.092Z,12.30
2023-05-21T03:22:09.984Z,13.38
2023-05-21T03:24:38.229Z,11.88
2023-05-21T03:27:07.029Z,12.60
2023-05-21T03:29:34.810Z,12.85
2023-05-21T03:32:02.618Z,13.20
2023-05-21T03:34:29.584Z,12.50
2023-05-21T03:36:56.664Z,13.07
2023-05-21T03:39:23.931Z,12.75
2023-05-21T03:41:51.173Z,13.55
2023-05-21T03:44:18.048Z,12.57
2023-05-21T03:46:45.643Z,12.75
2023-05-21T03:49:14.131Z,12.88
2023-05-21T03:51:40.881Z,13.18
2023-05-21T03:54:07.658Z,13.65
2023-05-21T03:56:34.429Z,12.68
2023-05-21T03:59:01.485Z,13.30
2023-05-21T04:01:28.487Z,13.82
2023-05-21T04:03:55.694Z,14.10
2023-05-21T04:06:22.832Z,12.98
2023-05-21T04:08:50.918Z,13.77
2023-05-21T04:11:17.733Z,13.52
2023-05-21T04:13:44.548Z,14.02
2023-05-21T04:16:14.575Z,13.38
2023-05-21T04:18:44.141Z,13.43
2023-05-21T04:21:12.642Z,14.38
2023-05-21T04:23:39.680Z,13.70
2023-05-21T04:26:07.580Z,13.27
2023-05-21T04:28:35.292Z,13.43
2023-05-21T04:31:02.243Z,13.20
2023-05-21T04:33:30.370Z,13.80
2023-05-21T04:35:57.800Z,13.45
2023-05-21T04:38:24.741Z,14.07
2023-05-21T04:40:51.899Z,13.63
2023-05-21T04:43:25.654Z,14.68
2023-05-21T04:45:56.238Z,14.00
2023-05-21T04:48:24.857Z,12.93
2023-05-21T04:50:53.507Z,13.05
2023-05-21T04:53:20.681Z,13.95
2023-05-21T04:55:47.987Z,13.23
2023-05-21T04:58:18.010Z,13.40
2023-05-21T05:00:50.961Z,14.52
2023-05-21T05:03:18.196Z,13.35
2023-05-21T05:05:45.116Z,13.68
2023-05-21T05:08:13.981Z,13.07
2023-05-21T05:10:43.524Z,14.07
2023-05-21T05:13:10.491Z,13.43
2023-05-21T05:15:37.502Z,16.27
2023-05-21T05:18:04.670Z,14.07
2023-05-21T05:20:31.512Z,14.88
2023-05-21T05:22:58.288Z,15.18
2023-05-21T05:25:25.260Z,15.20
2023-05-21T05:27:52.080Z,13.98
2023-05-21T05:30:19.830Z,15.07
2023-05-21T05:32:46.773Z,14.32
2023-05-21T05:35:13.636Z,12.77
2023-05-21T05:37:40.428Z,13.32
2023-05-21T05:40:08.120Z,14.73
2023-05-21T05:42:34.967Z,14.38
2023-05-21T05:45:01.777Z,13.32
2023-05-21T05:47:28.644Z,14.23
2023-05-21T05:49:55.450Z,15.05
2023-05-21T05:52:22.278Z,15.02
2023-05-21T05:54:49.108Z,13.30
2023-05-21T05:57:15.939Z,12.98
2023-05-21T05:59:42.703Z,13.80
2023-05-21T06:02:09.632Z,12.88
2023-05-21T06:04:36.421Z,13.40
2023-05-21T06:07:03.287Z,12.45
2023-05-21T06:09:30.088Z,13.18
2023-05-21T06:11:56.964Z,13.45
2023-05-21T06:14:23.812Z,13.00
2023-05-21T06:16:51.342Z,13.25
2023-05-21T06:19:18.223Z,11.50
2023-05-21T06:21:45.027Z,13.70
2023-05-21T06:24:11.835Z,13.40
2023-05-21T06:26:38.621Z,15.10
2023-05-21T06:29:05.566Z,13.60
2023-05-21T06:31:33.184Z,13.30
2023-05-21T06:34:01.026Z,13.05
2023-05-21T06:36:29.969Z,13.45
2023-05-21T06:38:57.184Z,13.23
2023-05-21T06:41:24.398Z,14.00
2023-05-21T06:43:51.437Z,13.60
2023-05-21T06:46:18.376Z,14.48
2023-05-21T06:48:46.290Z,13.35
2023-05-21T06:51:13.230Z,12.60
2023-05-21T06:53:40.182Z,11.98
2023-05-21T06:56:07.227Z,12.20
2023-05-21T06:58:34.014Z,11.73
2023-05-21T07:01:01.395Z,11.25
2023-05-21T07:03:28.423Z,12.45
2023-05-21T07:05:55.249Z,11.90
2023-05-21T07:08:22.155Z,11.57
2023-05-21T07:10:49.853Z,11.77
2023-05-21T07:13:16.859Z,11.38
2023-05-21T07:15:43.672Z,11.25
2023-05-21T07:18:10.512Z,12.55
2023-05-21T07:20:37.328Z,12.70
2023-05-21T07:23:04.153Z,11.98
2023-05-21T07:25:31.017Z,11.93
2023-05-21T07:27:57.817Z,10.80
2023-05-21T07:30:24.691Z,11.38
2023-05-21T07:32:51.587Z,11.90
2023-05-21T07:35:20.497Z,10.88
2023-05-21T07:37:48.063Z,10.93
2023-05-21T07:40:14.976Z,11.15
2023-05-21T07:42:42.030Z,11.23
2023-05-21T07:45:09.476Z,10.98
2023-05-21T07:47:36.323Z,10.38
2023-05-21T07:50:03.283Z,10.77
2023-05-21T07:52:30.184Z,10.88
2023-05-21T07:54:56.977Z,10.70
2023-05-21T07:57:23.804Z,9.93
2023-05-21T07:59:51.139Z,9.52
2023-05-21T08:02:18.425Z,11.00
2023-05-21T08:04:45.540Z,11.23
2023-05-21T08:07:12.986Z,11.18
2023-05-21T08:09:39.808Z,11.73
2023-05-21T08:12:07.322Z,9.77
2023-05-21T08:14:34.130Z,10.38
2023-05-21T08:17:01.006Z,10.70
2023-05-21T08:19:28.082Z,10.18
2023-05-21T08:21:54.934Z,10.32
2023-05-21T08:24:21.710Z,10.73
2023-05-21T08:26:50.490Z,9.15
2023-05-21T08:29:19.458Z,9.00
2023-05-21T08:31:46.323Z,9.18
2023-05-21T08:34:13.093Z,10.13
2023-05-21T08:36:43.037Z,9.30
2023-05-21T08:39:09.853Z,8.85
2023-05-21T08:41:39.709Z,9.02
2023-05-21T08:44:12.371Z,10.48
2023-05-21T08:46:44.387Z,8.97
2023-05-21T08:49:14.050Z,8.75
2023-05-21T08:51:41.753Z,8.50
2023-05-21T08:54:09.425Z,8.70
2023-05-21T08:56:36.657Z,8.70
2023-05-21T08:59:03.460Z,11.95
2023-05-21T09:01:33.395Z,10.57
2023-05-21T09:04:16.155Z,9.18
2023-05-21T09:06:47.654Z,8.65
2023-05-21T09:09:30.806Z,8.95
2023-05-21T09:11:57.581Z,8.68
2023-05-21T09:14:25.932Z,8.38
2023-05-21T09:16:52.863Z,8.75
2023-05-21T09:19:23.002Z,8.23
2023-05-21T09:21:52.930Z,8.18
2023-05-21T09:24:23.012Z,8.43
2023-05-21T09:26:50.064Z,9.32
2023-05-21T09:29:16.932Z,8.38
2023-05-21T09:31:47.786Z,8.38
2023-05-21T09:34:14.892Z,9.55
2023-05-21T09:36:42.488Z,8.25
2023-05-21T09:39:11.777Z,8.52
2023-05-21T09:41:42.111Z,8.25
2023-05-21T09:44:10.949Z,7.40
2023-05-21T09:46:40.380Z,7.05
2023-05-21T09:49:21.880Z,9.05
2023-05-21T09:51:48.642Z,6.68
2023-05-21T09:54:15.467Z,7.85
2023-05-21T09:56:42.494Z,7.60
2023-05-21T09:59:09.519Z,6.70
2023-05-21T10:01:37.472Z,7.28
2023-05-21T10:04:09.098Z,6.57
2023-05-21T10:06:43.711Z,7.00
2023-05-21T10:09:12.010Z,6.38
2023-05-21T10:11:44.755Z,7.05
2023-05-21T10:14:20.453Z,7.00
2023-05-21T10:16:48.292Z,6.72
2023-05-21T10:19:16.919Z,7.25
2023-05-21T10:21:45.710Z,7.03
2023-05-21T10:24:13.641Z,7.82
2023-05-21T10:26:42.332Z,9.93
2023-05-21T10:29:09.985Z,9.13
2023-05-21T10:31:39.122Z,7.13
2023-05-21T10:34:06.384Z,7.03
2023-05-21T10:36:35.680Z,7.30
2023-05-21T10:39:03.260Z,7.28
2023-05-21T10:41:47.460Z,6.25
2023-05-21T10:44:51.909Z,6.60
2023-05-21T10:47:55.798Z,6.85
2023-05-21T10:50:45.691Z,6.30
2023-05-21T10:53:59.873Z,6.68
2023-05-21T10:56:39.851Z,6.30
2023-05-21T10:59:30.100Z,6.50
2023-05-21T11:01:58.118Z,7.13
2023-05-21T11:04:29.482Z,6.13
2023-05-21T11:06:58.772Z,5.55
2023-05-21T11:09:27.044Z,7.93
2023-05-21T11:12:01.116Z,7.65
2023-05-21T11:14:39.042Z,9.27
2023-05-21T11:17:08.995Z,6.88
2023-05-21T11:19:38.752Z,9.23
2023-05-21T11:22:22.104Z,6.45
2023-05-21T11:24:51.131Z,5.40
2023-05-21T11:27:38.673Z,5.70
2023-05-21T11:30:17.859Z,7.25
2023-05-21T11:33:14.016Z,5.50
2023-05-21T11:35:55.690Z,5.78
2023-05-21T11:38:22.470Z,6.05
2023-05-21T11:40:56.537Z,6.38
2023-05-21T11:43:24.083Z,5.85
2023-05-21T11:45:53.298Z,6.30
2023-05-21T11:48:27.116Z,6.20
2023-05-21T11:50:55.001Z,6.40
2023-05-21T11:53:22.067Z,6.32
2023-05-21T11:55:49.022Z,7.10
2023-05-21T11:58:19.323Z,6.13
2023-05-21T12:00:46.261Z,7.53
2023-05-21T12:03:14.740Z,6.05
2023-05-21T12:05:49.111Z,5.20
2023-05-21T12:08:25.540Z,5.78
2023-05-21T12:10:59.880Z,5.45
2023-05-21T12:13:27.880Z,5.85
2023-05-21T12:15:54.996Z,8.60
2023-05-21T12:18:22.014Z,5.25
2023-05-21T12:20:51.952Z,5.65
2023-05-21T12:23:25.660Z,5.45
2023-05-21T12:25:53.691Z,5.25
2023-05-21T12:28:24.738Z,4.63
2023-05-21T12:30:53.487Z,6.97
2023-05-21T12:33:21.633Z,5.32
2023-05-21T12:35:50.553Z,7.78
2023-05-21T12:38:17.591Z,5.30
2023-05-21T12:40:45.573Z,5.28
2023-05-21T12:43:12.674Z,5.38
2023-05-21T12:45:41.371Z,4.82
2023-05-21T12:48:08.501Z,5.25
2023-05-21T12:50:40.572Z,6.47
2023-05-21T12:53:10.740Z,7.65
2023-05-21T12:55:37.511Z,8.88
2023-05-21T12:58:08.190Z,5.00
2023-05-21T13:00:35.625Z,6.82
2023-05-21T13:03:04.452Z,5.10
2023-05-21T13:05:31.697Z,5.88
2023-05-21T13:07:58.484Z,5.75
2023-05-21T13:10:25.318Z,5.53
2023-05-21T13:12:52.081Z,4.68
2023-05-21T13:15:19.024Z,5.63
2023-05-21T13:17:47.229Z,5.20
2023-05-21T13:20:16.811Z,6.22
2023-05-21T13:22:49.439Z,5.45
2023-05-21T13:25:24.372Z,6.88
2023-05-21T13:27:52.994Z,6.68
2023-05-21T13:30:21.745Z,5.63
2023-05-21T13:32:48.949Z,4.97
2023-05-21T13:35:16.698Z,5.70
2023-05-21T13:37:43.965Z,5.30
2023-05-21T13:40:16.852Z,5.30
2023-05-21T13:42:48.768Z,5.22
2023-05-21T13:45:19.227Z,5.63
2023-05-21T13:47:47.917Z,4.78
2023-05-21T13:50:15.909Z,8.30
2023-05-21T13:52:44.122Z,4.75
2023-05-21T13:55:11.268Z,6.78
2023-05-21T13:57:38.130Z,5.50
2023-05-21T14:00:06.084Z,5.90
2023-05-21T14:02:33.109Z,6.20
2023-05-21T14:04:59.963Z,5.85
2023-05-21T14:07:27.952Z,6.40
2023-05-21T14:09:54.846Z,5.43
2023-05-21T14:12:21.761Z,4.90
2023-05-21T14:14:49.879Z,4.50
2023-05-21T14:17:16.773Z,6.03
2023-05-21T14:19:43.533Z,5.55
2023-05-21T14:22:10.388Z,7.47
2023-05-21T14:24:37.191Z,5.78
2023-05-21T14:27:04.076Z,5.60
2023-05-21T14:29:30.879Z,5.88
2023-05-21T14:31:57.719Z,4.60
2023-05-21T14:34:24.688Z,5.13
2023-05-21T14:36:51.471Z,6.38
2023-05-21T14:39:18.305Z,4.85
2023-05-21T14:41:45.197Z,5.40
2023-05-21T14:44:12.049Z,6.07
2023-05-21T14:46:39.629Z,4.95
2023-05-21T14:49:06.550Z,6.00
2023-05-21T14:51:33.347Z,5.63
2023-05-21T14:54:00.172Z,5.93
2023-05-21T14:56:28.115Z,5.90
2023-05-21T14:58:55.922Z,7.45
2023-05-21T15:01:23.187Z,5.60
2023-05-21T15:03:50.271Z,4.43
2023-05-21T15:06:17.167Z,4.45
2023-05-21T15:08:43.936Z,5.03
2023-05-21T15:11:11.465Z,5.20
2023-05-21T15:13:38.977Z,4.22
2023-05-21T15:16:06.474Z,4.95
2023-05-21T15:18:33.654Z,5.43
2023-05-21T15:21:00.587Z,5.20
2023-05-21T15:23:27.606Z,3.85
2023-05-21T15:25:54.458Z,7.57
2023-05-21T15:28:22.903Z,5.03
2023-05-21T15:30:49.697Z,6.05
2023-05-21T15:33:16.482Z,5.80
2023-05-21T15:35:43.644Z,4.72
2023-05-21T15:38:10.899Z,6.35
2023-05-21T15:40:41.940Z,4.90
2023-05-21T15:43:08.822Z,4.38
2023-05-21T15:45:36.256Z,4.30
2023-05-21T15:48:03.307Z,4.40
2023-05-21T15:50:30.140Z,5.82
2023-05-21T15:52:56.939Z,6.90
2023-05-21T15:55:23.761Z,4.97
2023-05-21T15:57:50.569Z,6.05
2023-05-21T16:00:17.459Z,5.65
2023-05-21T16:02:44.374Z,5.22
2023-05-21T16:05:12.426Z,3.90
2023-05-21T16:07:39.196Z,6.82
2023-05-21T16:10:10.268Z,4.30
2023-05-21T16:12:38.346Z,3.70
2023-05-21T16:15:06.281Z,4.90
2023-05-21T16:17:33.074Z,5.53
2023-05-21T16:19:59.972Z,4.25
2023-05-21T16:22:26.756Z,4.30
2023-05-21T16:24:54.726Z,6.72
2023-05-21T16:27:21.552Z,5.40
2023-05-21T16:29:48.306Z,3.92
2023-05-21T16:32:15.158Z,5.45
2023-05-21T16:34:42.010Z,4.72
2023-05-21T16:37:09.720Z,5.07
2023-05-21T16:39:36.882Z,4.55
2023-05-21T16:42:03.926Z,3.92
2023-05-21T16:44:32.013Z,4.00
2023-05-21T16:47:00.054Z,4.90
2023-05-21T16:49:28.018Z,4.05
2023-05-21T16:51:54.999Z,4.18
2023-05-21T16:54:21.978Z,5.15
2023-05-21T16:56:48.818Z,3.50
2023-05-21T16:59:15.837Z,4.00
2023-05-21T17:01:42.969Z,4.53
2023-05-21T17:04:09.863Z,5.78
2023-05-21T17:06:36.758Z,4.78
2023-05-21T17:09:03.911Z,5.95
2023-05-21T17:11:32.289Z,5.15
2023-05-21T17:13:59.067Z,4.70
2023-05-21T17:16:25.925Z,5.63
2023-05-21T17:18:52.845Z,4.43
2023-05-21T17:21:19.815Z,6.15
2023-05-21T17:23:46.731Z,4.75
2023-05-21T17:26:13.969Z,3.80
2023-05-21T17:28:40.851Z,8.60
2023-05-21T17:31:09.475Z,4.22
2023-05-21T17:33:37.929Z,5.45
2023-05-21T17:36:05.132Z,6.47
2023-05-21T17:38:31.971Z,4.40
2023-05-21T17:40:59.260Z,6.93
2023-05-21T17:43:27.587Z,4.97
2023-05-21T17:45:54.517Z,4.50
2023-05-21T17:48:21.549Z,5.30
2023-05-21T17:50:48.402Z,5.50
2023-05-21T17:53:16.132Z,3.97
2023-05-21T17:55:42.954Z,4.00
2023-05-21T17:58:12.690Z,4.88
2023-05-21T18:00:39.542Z,4.28
2023-05-21T18:03:06.417Z,3.47
2023-05-21T18:05:33.433Z,3.72
2023-05-21T18:08:01.393Z,4.40
2023-05-21T18:10:28.615Z,3.55
2023-05-21T18:12:55.396Z,5.07
2023-05-21T18:15:22.235Z,4.88
2023-05-21T18:17:49.740Z,4.40
2023-05-21T18:20:16.697Z,3.33
2023-05-21T18:22:44.629Z,3.92
2023-05-21T18:25:11.629Z,4.60
2023-05-21T18:27:38.407Z,4.25
2023-05-21T18:30:06.831Z,3.53
2023-05-21T18:32:34.552Z,3.75
2023-05-21T18:35:01.429Z,3.78
2023-05-21T18:37:29.135Z,4.03
2023-05-21T18:39:55.954Z,3.97
2023-05-21T18:42:22.748Z,3.47
2023-05-21T18:44:51.443Z,5.22
2023-05-21T18:47:18.345Z,4.70
2023-05-21T18:49:45.132Z,7.07
2023-05-21T18:52:11.917Z,3.92
2023-05-21T18:54:39.050Z,4.72
2023-05-21T18:57:06.091Z,3.47
2023-05-21T18:59:33.396Z,3.50
2023-05-21T19:02:00.309Z,4.20
2023-05-21T19:04:27.474Z,5.38
2023-05-21T19:06:54.881Z,4.90
2023-05-21T19:09:21.741Z,5.53
2023-05-21T19:11:48.879Z,3.88
2023-05-21T19:14:15.714Z,3.88
2023-05-21T19:16:42.586Z,3.53
2023-05-21T19:19:09.411Z,4.57
2023-05-21T19:21:36.737Z,3.90
2023-05-21T19:24:05.995Z,3.92
2023-05-21T19:26:33.141Z,4.88
2023-05-21T19:29:00.310Z,3.78
2023-05-21T19:31:27.138Z,3.22
2023-05-21T19:33:54.373Z,3.83
2023-05-21T19:36:22.304Z,4.35
2023-05-21T19:38:50.682Z,3.40
2023-05-21T19:41:18.811Z,4.57
2023-05-21T19:43:46.340Z,3.75
2023-05-21T19:46:15.909Z,3.88
2023-05-21T19:48:45.018Z,3.78
2023-05-21T19:51:11.834Z,4.38
2023-05-21T19:53:38.694Z,4.38
2023-05-21T19:56:05.785Z,4.05
2023-05-21T19:58:33.177Z,4.97
2023-05-21T20:01:00.116Z,3.65
2023-05-21T20:03:28.002Z,3.35
2023-05-21T20:05:55.014Z,3.80
2023-05-21T20:08:22.285Z,4.13
2023-05-21T20:10:51.735Z,4.35
2023-05-21T20:13:19.405Z,3.30
2023-05-21T20:15:47.716Z,3.90
2023-05-21T20:18:15.370Z,4.30
2023-05-21T20:20:42.976Z,3.85
2023-05-21T20:23:09.808Z,4.97
2023-05-21T20:25:36.606Z,8.07
2023-05-21T20:28:04.299Z,5.95
2023-05-21T20:30:51.932Z,3.95
2023-05-21T20:33:19.939Z,5.18
2023-05-21T20:35:46.713Z,4.78
2023-05-21T20:38:15.943Z,3.72
2023-05-21T20:40:44.233Z,4.75
2023-05-21T20:43:18.653Z,4.60
2023-05-21T20:45:47.479Z,3.30
2023-05-21T20:48:14.958Z,4.93
2023-05-21T20:50:41.860Z,4.18
2023-05-21T20:53:08.735Z,4.65
2023-05-21T20:55:35.573Z,5.05
2023-05-21T20:58:03.453Z,4.03
2023-05-21T21:00:31.704Z,4.13
2023-05-21T21:03:01.099Z,4.18
2023-05-21T21:05:28.339Z,3.95
2023-05-21T21:07:56.078Z,4.05
2023-05-21T21:10:23.222Z,6.35
2023-05-21T21:12:50.074Z,5.53
2023-05-21T21:15:17.073Z,5.53
2023-05-21T21:17:43.917Z,4.70
2023-05-21T21:20:12.839Z,3.33
2023-05-21T21:22:39.771Z,3.72
2023-05-21T21:25:07.153Z,4.47
2023-05-21T21:27:34.012Z,5.68
2023-05-21T21:30:00.790Z,8.93
2023-05-21T21:32:27.731Z,5.55
2023-05-21T21:34:54.991Z,4.20
2023-05-21T21:37:21.940Z,5.15
2023-05-21T21:39:48.716Z,3.10
2023-05-21T21:42:15.646Z,3.75
2023-05-21T21:44:42.816Z,3.83
2023-05-21T21:47:09.655Z,5.93
2023-05-21T21:49:36.467Z,6.50
2023-05-21T21:52:03.251Z,3.80
2023-05-21T21:54:30.016Z,5.10
2023-05-21T21:56:56.783Z,3.80
2023-05-21T21:59:23.546Z,3.45
2023-05-21T22:01:50.844Z,3.60
2023-05-21T22:04:17.639Z,4.63
2023-05-21T22:06:45.812Z,4.32
2023-05-21T22:09:12.781Z,4.22
2023-05-21T22:11:39.732Z,4.07
2023-05-21T22:14:06.592Z,3.90
2023-05-21T22:16:33.958Z,5.40
2023-05-21T22:19:01.398Z,4.25
2023-05-21T22:21:29.214Z,4.63
2023-05-21T22:23:56.225Z,4.25
2023-05-21T22:26:23.284Z,3.40
2023-05-21T22:28:50.614Z,3.95
2023-05-21T22:31:17.693Z,3.28
2023-05-21T22:33:44.526Z,4.18
2023-05-21T22:36:11.592Z,5.20
2023-05-21T22:38:38.418Z,5.65
2023-05-21T22:41:06.622Z,3.45
2023-05-21T22:43:34.778Z,6.13
2023-05-21T22:46:01.888Z,3.75
2023-05-21T22:48:31.694Z,4.13
2023-05-21T22:50:58.498Z,3.60
2023-05-21T22:53:25.842Z,3.85
2023-05-21T22:55:53.055Z,3.67
2023-05-21T22:58:19.819Z,4.07
2023-05-21T23:00:48.012Z,3.35
2023-05-21T23:03:15.070Z,5.40
2023-05-21T23:05:41.946Z,3.10
2023-05-21T23:08:08.898Z,3.13
2023-05-21T23:10:35.739Z,4.47
2023-05-21T23:13:02.671Z,5.60
2023-05-21T23:15:29.540Z,3.05
2023-05-21T23:17:57.425Z,4.20
2023-05-21T23:20:24.663Z,3.75
2023-05-21T23:22:52.212Z,4.25
2023-05-21T23:25:18.982Z,3.10
2023-05-21T23:27:45.746Z,4.45
2023-05-21T23:30:12.632Z,3.20
2023-05-21T23:32:39.581Z,3.97
2023-05-21T23:35:07.566Z,4.15
2023-05-21T23:37:34.337Z,4.53
2023-05-21T23:40:01.206Z,3.00
2023-05-21T23:42:28.076Z,3.60
2023-05-21T23:44:54.998Z,4.30
2023-05-21T23:47:22.468Z,6.03
2023-05-21T23:49:49.286Z,3.38
2023-05-21T23:52:18.285Z,3.17
2023-05-21T23:54:45.142Z,3.20
2023-05-21T23:57:13.292Z,4.75
2023-05-21T23:59:40.506Z,5.43
